createdAt,value
2023-03-24T00:00:02.513Z,1.70
2023-03-24T00:01:02.511Z,1.60
2023-03-24T00:02:02.517Z,1.80
2023-03-24T00:03:02.759Z,1.60
2023-03-24T00:04:02.626Z,1.70
2023-03-24T00:05:02.480Z,1.60
2023-03-24T00:06:02.460Z,1.60
2023-03-24T00:07:02.444Z,1.80
2023-03-24T00:08:02.626Z,1.80
2023-03-24T00:09:02.416Z,1.60
2023-03-24T00:10:02.440Z,1.60
2023-03-24T00:11:02.418Z,1.80
2023-03-24T00:12:02.404Z,1.40
2023-03-24T00:13:02.400Z,1.50
2023-03-24T00:14:02.377Z,1.60
2023-03-24T00:15:02.370Z,1.50
2023-03-24T00:16:02.373Z,1.90
2023-03-24T00:17:02.344Z,1.80
2023-03-24T00:18:02.364Z,2.00
2023-03-24T00:19:02.332Z,1.70
2023-03-24T00:20:02.309Z,1.40
2023-03-24T00:21:02.298Z,1.60
2023-03-24T00:22:02.354Z,1.70
2023-03-24T00:23:02.265Z,1.70
2023-03-24T00:24:02.252Z,1.50
2023-03-24T00:25:02.259Z,1.70
2023-03-24T00:26:02.238Z,1.60
2023-03-24T00:27:02.236Z,1.90
2023-03-24T00:28:02.219Z,1.40
2023-03-24T00:29:02.213Z,2.10
2023-03-24T00:30:02.185Z,1.70
2023-03-24T00:31:02.247Z,2.00
2023-03-24T00:32:02.163Z,1.80
2023-03-24T00:33:02.230Z,1.90
2023-03-24T00:34:02.142Z,1.60
2023-03-24T00:35:02.161Z,1.70
2023-03-24T00:36:02.185Z,1.80
2023-03-24T00:37:02.134Z,1.60
2023-03-24T00:38:02.104Z,1.80
2023-03-24T00:39:02.104Z,1.60
2023-03-24T00:40:02.081Z,1.70
2023-03-24T00:41:02.079Z,1.60
2023-03-24T00:42:02.065Z,1.70
2023-03-24T00:43:09.058Z,1.40
2023-03-24T00:44:02.046Z,1.80
2023-03-24T00:45:02.030Z,1.30
2023-03-24T00:46:02.019Z,1.70
2023-03-24T00:47:02.047Z,1.70
2023-03-24T00:48:02.017Z,1.70
2023-03-24T00:49:02.003Z,1.80
2023-03-24T00:50:02.070Z,1.60
2023-03-24T00:51:01.982Z,1.70
2023-03-24T00:52:01.982Z,1.60
2023-03-24T00:53:01.956Z,1.60
2023-03-24T00:54:01.992Z,1.70
2023-03-24T00:55:01.939Z,1.70
2023-03-24T00:56:01.935Z,1.70
2023-03-24T00:57:01.927Z,1.80
2023-03-24T00:58:01.905Z,1.50
2023-03-24T00:59:01.899Z,1.40
2023-03-24T01:00:01.886Z,1.70
2023-03-24T01:01:01.894Z,1.70
2023-03-24T01:02:01.891Z,1.40
2023-03-24T01:03:01.874Z,1.60
2023-03-24T01:04:01.830Z,1.70
2023-03-24T01:05:01.823Z,1.70
2023-03-24T01:06:03.184Z,1.50
2023-03-24T01:07:01.840Z,1.70
2023-03-24T01:08:01.791Z,1.30
2023-03-24T01:09:01.780Z,1.40
2023-03-24T01:10:01.769Z,1.90
2023-03-24T01:11:01.743Z,1.60
2023-03-24T01:12:01.738Z,1.50
2023-03-24T01:13:01.745Z,1.50
2023-03-24T01:14:01.703Z,1.40
2023-03-24T01:15:01.706Z,1.40
2023-03-24T01:16:01.749Z,1.70
2023-03-24T01:17:01.672Z,1.40
2023-03-24T01:18:01.709Z,1.30
2023-03-24T01:19:01.656Z,1.70
2023-03-24T01:20:01.636Z,1.50
2023-03-24T01:21:01.641Z,1.70
2023-03-24T01:22:01.635Z,1.40
2023-03-24T01:23:01.643Z,1.40
2023-03-24T01:24:01.648Z,1.70
2023-03-24T01:25:01.584Z,1.50
2023-03-24T01:26:01.581Z,1.40
2023-03-24T01:27:01.583Z,1.50
2023-03-24T01:28:01.554Z,1.50
2023-03-24T01:29:01.549Z,1.50
2023-03-24T01:30:01.547Z,1.30
2023-03-24T01:31:01.536Z,1.60
2023-03-24T01:32:01.571Z,1.50
2023-03-24T01:33:01.565Z,1.30
2023-03-24T01:34:01.527Z,1.80
2023-03-24T01:35:01.477Z,1.40
2023-03-24T01:36:01.481Z,1.50
2023-03-24T01:37:01.464Z,1.60
2023-03-24T01:38:01.462Z,1.30
2023-03-24T01:39:01.616Z,1.50
2023-03-24T01:40:01.423Z,1.40
2023-03-24T01:41:01.433Z,1.20
2023-03-24T01:42:01.397Z,1.30
2023-03-24T01:43:01.424Z,1.40
2023-03-24T01:44:01.403Z,1.50
2023-03-24T01:45:01.385Z,1.50
2023-03-24T01:46:01.497Z,1.40
2023-03-24T01:47:01.377Z,1.90
2023-03-24T01:48:01.433Z,1.40
2023-03-24T01:49:01.360Z,1.30
2023-03-24T01:50:01.365Z,1.20
2023-03-24T01:51:01.413Z,1.40
2023-03-24T01:52:01.301Z,1.40
2023-03-24T01:53:01.289Z,1.30
2023-03-24T01:54:01.273Z,1.50
2023-03-24T01:55:01.288Z,1.50
2023-03-24T01:56:01.250Z,1.60
2023-03-24T01:57:01.339Z,1.50
2023-03-24T01:58:01.263Z,1.40
2023-03-24T01:59:01.233Z,1.50
2023-03-24T02:00:01.209Z,1.50
2023-03-24T02:01:01.224Z,1.50
2023-03-24T02:02:01.189Z,1.40
2023-03-24T02:03:01.220Z,1.60
2023-03-24T02:04:01.200Z,1.30
2023-03-24T02:05:01.191Z,1.20
2023-03-24T02:06:01.137Z,1.70
2023-03-24T02:07:01.134Z,1.50
2023-03-24T02:08:01.120Z,1.30
2023-03-24T02:09:01.119Z,1.50
2023-03-24T02:10:01.137Z,1.30
2023-03-24T02:11:01.217Z,1.40
2023-03-24T02:12:01.079Z,1.40
2023-03-24T02:13:01.087Z,1.40
2023-03-24T02:14:01.071Z,1.60
2023-03-24T02:15:01.073Z,1.30
2023-03-24T02:16:01.160Z,1.50
2023-03-24T02:17:01.029Z,1.60
2023-03-24T02:18:01.046Z,1.40
2023-03-24T02:19:01.028Z,1.80
2023-03-24T02:20:00.999Z,1.60
2023-03-24T02:21:01.003Z,1.60
2023-03-24T02:22:00.973Z,1.50
2023-03-24T02:23:00.979Z,1.70
2023-03-24T02:24:00.962Z,1.70
2023-03-24T02:25:00.967Z,1.80
2023-03-24T02:26:00.936Z,1.80
2023-03-24T02:27:00.932Z,1.60
2023-03-24T02:28:00.925Z,1.70
2023-03-24T02:29:00.903Z,1.50
2023-03-24T02:30:00.950Z,1.60
2023-03-24T02:31:00.892Z,1.30
2023-03-24T02:32:00.905Z,1.70
2023-03-24T02:33:00.951Z,1.60
2023-03-24T02:34:00.845Z,1.60
2023-03-24T02:35:00.842Z,1.60
2023-03-24T02:36:00.893Z,1.80
2023-03-24T02:37:00.812Z,1.50
2023-03-24T02:38:00.807Z,2.00
2023-03-24T02:39:00.807Z,1.70
2023-03-24T02:40:00.800Z,1.70
2023-03-24T02:41:00.799Z,1.70
2023-03-24T02:42:00.770Z,1.70
2023-03-24T02:43:00.767Z,1.50
2023-03-24T02:44:08.935Z,1.80
2023-03-24T02:45:00.729Z,1.70
2023-03-24T02:46:00.744Z,1.70
2023-03-24T02:47:00.694Z,1.70
2023-03-24T02:48:00.717Z,1.80
2023-03-24T02:49:00.673Z,1.80
2023-03-24T02:50:00.701Z,1.70
2023-03-24T02:51:00.650Z,1.70
2023-03-24T02:52:00.658Z,1.80
2023-03-24T02:53:00.644Z,1.80
2023-03-24T02:54:00.641Z,1.80
2023-03-24T02:55:00.612Z,2.10
2023-03-24T02:56:00.613Z,1.90
2023-03-24T02:57:00.591Z,1.80
2023-03-24T02:58:00.588Z,1.70
2023-03-24T02:59:00.590Z,1.90
2023-03-24T03:00:00.576Z,1.70
2023-03-24T03:01:00.592Z,1.90
2023-03-24T03:02:00.538Z,1.90
2023-03-24T03:03:00.628Z,2.10
2023-03-24T03:04:00.551Z,1.80
2023-03-24T03:05:00.496Z,1.70
2023-03-24T03:06:00.503Z,1.70
2023-03-24T03:07:00.483Z,1.90
2023-03-24T03:08:00.469Z,2.30
2023-03-24T03:09:00.452Z,1.90
2023-03-24T03:10:00.460Z,2.30
2023-03-24T03:11:00.444Z,2.20
2023-03-24T03:12:00.427Z,2.00
2023-03-24T03:13:00.422Z,1.90
2023-03-24T03:14:00.447Z,2.30
2023-03-24T03:15:00.433Z,2.00
2023-03-24T03:16:00.414Z,1.80
2023-03-24T03:17:00.398Z,2.00
2023-03-24T03:18:00.395Z,2.00
2023-03-24T03:19:00.345Z,2.00
2023-03-24T03:20:00.906Z,1.80
2023-03-24T03:21:00.334Z,2.00
2023-03-24T03:22:00.367Z,1.70
2023-03-24T03:23:00.337Z,2.00
2023-03-24T03:24:00.343Z,2.00
2023-03-24T03:25:00.290Z,2.20
2023-03-24T03:26:00.289Z,2.30
2023-03-24T03:27:00.278Z,2.10
2023-03-24T03:28:00.262Z,2.20
2023-03-24T03:29:00.268Z,2.20
2023-03-24T03:30:00.381Z,2.00
2023-03-24T03:31:00.293Z,2.30
2023-03-24T03:32:00.227Z,2.20
2023-03-24T03:33:00.318Z,2.20
2023-03-24T03:34:00.189Z,2.30
2023-03-24T03:35:00.197Z,2.10
2023-03-24T03:36:00.207Z,2.20
2023-03-24T03:37:00.154Z,2.10
2023-03-24T03:38:00.145Z,2.40
2023-03-24T03:39:00.154Z,2.20
2023-03-24T03:40:00.177Z,2.50
2023-03-24T03:41:00.137Z,2.00
2023-03-24T03:42:00.109Z,2.00
2023-03-24T03:43:00.138Z,2.20
2023-03-24T03:44:00.148Z,2.40
2023-03-24T03:45:00.126Z,2.30
2023-03-24T03:46:00.120Z,2.50
2023-03-24T03:47:00.097Z,2.30
2023-03-24T03:48:00.101Z,2.40
2023-03-24T03:49:00.027Z,2.00
2023-03-24T03:50:00.047Z,2.20
2023-03-24T03:51:12.377Z,2.30
2023-03-24T03:52:00.005Z,2.30
2023-03-24T03:52:59.986Z,2.30
2023-03-24T03:53:59.994Z,2.10
2023-03-24T03:54:59.997Z,2.30
2023-03-24T03:55:59.978Z,2.30
2023-03-24T03:57:00.009Z,2.30
2023-03-24T03:57:59.931Z,2.10
2023-03-24T03:58:59.917Z,2.20
2023-03-24T03:59:59.920Z,2.20
2023-03-24T04:00:59.929Z,1.90
2023-03-24T04:01:59.939Z,2.10
2023-03-24T04:03:00.022Z,2.00
2023-03-24T04:03:59.929Z,2.20
2023-03-24T04:05:06.587Z,2.50
2023-03-24T04:06:00.850Z,2.40
2023-03-24T04:06:59.836Z,2.20
2023-03-24T04:07:59.839Z,2.20
2023-03-24T04:08:59.808Z,2.30
2023-03-24T04:09:59.819Z,2.00
2023-03-24T04:10:59.788Z,2.40
2023-03-24T04:11:59.787Z,1.80
2023-03-24T04:12:59.792Z,2.10
2023-03-24T04:13:59.767Z,2.40
2023-03-24T04:14:59.757Z,1.90
2023-03-24T04:15:59.792Z,2.20
2023-03-24T04:16:59.725Z,2.30
2023-03-24T04:17:59.759Z,2.10
2023-03-24T04:18:59.729Z,2.00
2023-03-24T04:19:59.713Z,2.10
2023-03-24T04:20:59.684Z,1.90
2023-03-24T04:21:59.682Z,1.80
2023-03-24T04:22:59.677Z,2.00
2023-03-24T04:23:59.667Z,1.70
2023-03-24T04:24:59.635Z,2.10
2023-03-24T04:25:59.636Z,2.20
2023-03-24T04:26:59.630Z,1.80
2023-03-24T04:27:59.606Z,1.80
2023-03-24T04:28:59.591Z,1.80
2023-03-24T04:29:59.597Z,1.70
2023-03-24T04:30:59.579Z,1.90
2023-03-24T04:31:59.596Z,2.00
2023-03-24T04:32:59.576Z,1.90
2023-03-24T04:33:59.558Z,1.80
2023-03-24T04:34:59.557Z,1.90
2023-03-24T04:35:59.541Z,2.00
2023-03-24T04:36:59.505Z,1.80
2023-03-24T04:37:59.514Z,1.80
2023-03-24T04:38:59.481Z,2.10
2023-03-24T04:39:59.481Z,1.80
2023-03-24T04:40:59.471Z,1.90
2023-03-24T04:41:59.464Z,2.00
2023-03-24T04:42:59.446Z,1.80
2023-03-24T04:43:59.440Z,1.90
2023-03-24T04:45:06.954Z,2.30
2023-03-24T04:45:59.429Z,2.00
2023-03-24T04:46:59.409Z,1.80
2023-03-24T04:47:59.446Z,1.90
2023-03-24T04:48:59.483Z,2.00
2023-03-24T04:49:59.373Z,2.00
2023-03-24T04:50:59.375Z,2.00
2023-03-24T04:51:59.381Z,1.50
2023-03-24T04:52:59.336Z,2.20
2023-03-24T04:53:59.332Z,1.90
2023-03-24T04:54:59.341Z,1.90
2023-03-24T04:55:59.304Z,1.80
2023-03-24T04:56:59.319Z,1.80
2023-03-24T04:57:59.292Z,1.90
2023-03-24T04:58:59.271Z,1.60
2023-03-24T04:59:59.260Z,1.90
2023-03-24T05:00:59.267Z,1.90
2023-03-24T05:01:59.252Z,1.70
2023-03-24T05:02:59.325Z,1.50
2023-03-24T05:03:59.217Z,1.90
2023-03-24T05:04:59.210Z,1.90
2023-03-24T05:05:59.243Z,2.00
2023-03-24T05:06:59.196Z,1.90
2023-03-24T05:07:59.182Z,1.90
2023-03-24T05:08:59.190Z,1.90
2023-03-24T05:09:59.155Z,1.60
2023-03-24T05:10:59.134Z,1.70
2023-03-24T05:12:01.420Z,1.90
2023-03-24T05:12:59.130Z,2.00
2023-03-24T05:13:59.105Z,1.60
2023-03-24T05:14:59.130Z,2.00
2023-03-24T05:15:59.106Z,1.90
2023-03-24T05:16:59.107Z,2.00
2023-03-24T05:17:59.116Z,1.70
2023-03-24T05:18:59.076Z,2.10
2023-03-24T05:19:59.038Z,2.20
2023-03-24T05:20:59.053Z,2.10
2023-03-24T05:21:59.017Z,1.90
2023-03-24T05:22:59.052Z,2.20
2023-03-24T05:23:58.996Z,2.00
2023-03-24T05:24:58.984Z,1.90
2023-03-24T05:25:58.982Z,2.20
2023-03-24T05:26:58.969Z,2.00
2023-03-24T05:27:58.962Z,2.20
2023-03-24T05:28:58.951Z,2.30
2023-03-24T05:29:58.946Z,2.50
2023-03-24T05:30:58.941Z,2.30
2023-03-24T05:31:58.915Z,2.00
2023-03-24T05:32:58.927Z,2.40
2023-03-24T05:33:58.900Z,2.10
2023-03-24T05:34:58.876Z,2.20
2023-03-24T05:35:58.996Z,1.90
2023-03-24T05:36:58.883Z,2.20
2023-03-24T05:37:58.884Z,2.00
2023-03-24T05:38:59.015Z,1.80
2023-03-24T05:39:58.824Z,2.20
2023-03-24T05:40:58.824Z,1.80
2023-03-24T05:41:58.817Z,1.90
2023-03-24T05:42:58.797Z,2.10
2023-03-24T05:43:58.811Z,2.00
2023-03-24T05:44:58.783Z,1.90
2023-03-24T05:45:58.784Z,1.90
2023-03-24T05:46:58.756Z,1.80
2023-03-24T05:47:58.776Z,1.80
2023-03-24T05:48:58.727Z,1.80
2023-03-24T05:49:58.727Z,1.90
2023-03-24T05:50:58.702Z,1.70
2023-03-24T05:51:58.704Z,1.90
2023-03-24T05:52:58.706Z,1.80
2023-03-24T05:53:58.670Z,1.70
2023-03-24T05:54:58.690Z,1.70
2023-03-24T05:55:58.686Z,1.90
2023-03-24T05:56:58.702Z,1.70
2023-03-24T05:58:00.313Z,1.70
2023-03-24T05:58:58.622Z,1.50
2023-03-24T05:59:58.618Z,1.30
2023-03-24T06:00:58.591Z,1.60
2023-03-24T06:01:58.637Z,1.50
2023-03-24T06:02:58.694Z,1.50
2023-03-24T06:03:58.715Z,1.40
2023-03-24T06:04:58.544Z,1.40
2023-03-24T06:05:58.564Z,1.80
2023-03-24T06:06:58.542Z,1.60
2023-03-24T06:07:58.518Z,1.80
2023-03-24T06:08:58.530Z,1.60
2023-03-24T06:09:58.514Z,1.80
2023-03-24T06:10:58.499Z,1.60
2023-03-24T06:11:58.542Z,1.70
2023-03-24T06:12:58.459Z,1.80
2023-03-24T06:13:58.458Z,1.80
2023-03-24T06:14:58.463Z,2.00
2023-03-24T06:15:59.369Z,2.10
2023-03-24T06:16:58.428Z,2.20
2023-03-24T06:17:59.033Z,2.20
2023-03-24T06:18:58.400Z,2.30
2023-03-24T06:19:58.398Z,2.60
2023-03-24T06:20:58.386Z,2.30
2023-03-24T06:21:58.363Z,2.30
2023-03-24T06:22:58.348Z,2.20
2023-03-24T06:23:58.351Z,2.90
2023-03-24T06:24:58.332Z,2.40
2023-03-24T06:25:58.445Z,2.20
2023-03-24T06:26:59.331Z,2.70
2023-03-24T06:27:58.298Z,2.20
2023-03-24T06:28:58.325Z,2.30
2023-03-24T06:29:58.305Z,2.30
2023-03-24T06:30:58.292Z,2.50
2023-03-24T06:31:58.256Z,2.60
2023-03-24T06:32:58.363Z,1.80
2023-03-24T06:33:58.305Z,1.50
2023-03-24T06:34:58.238Z,1.10
2023-03-24T06:35:58.287Z,1.10
2023-03-24T06:36:58.229Z,0.70
2023-03-24T06:37:58.199Z,0.80
2023-03-24T06:38:58.201Z,0.90
2023-03-24T06:39:58.330Z,0.90
2023-03-24T06:40:59.046Z,1.20
2023-03-24T06:41:58.164Z,0.70
2023-03-24T06:42:58.159Z,0.80
2023-03-24T06:43:58.163Z,0.60
2023-03-24T06:44:58.126Z,1.40
2023-03-24T06:46:05.734Z,0.90
2023-03-24T06:46:58.109Z,0.70
2023-03-24T06:47:58.140Z,0.80
2023-03-24T06:48:58.185Z,0.80
2023-03-24T06:49:58.081Z,0.90
2023-03-24T06:50:58.197Z,0.80
2023-03-24T06:51:58.068Z,0.90
2023-03-24T06:52:58.065Z,0.90
2023-03-24T06:53:58.029Z,0.70
2023-03-24T06:54:58.029Z,0.90
2023-03-24T06:55:58.010Z,1.20
2023-03-24T06:56:58.055Z,0.90
2023-03-24T06:57:58.072Z,0.80
2023-03-24T06:58:58.027Z,1.10
2023-03-24T06:59:57.952Z,1.10
2023-03-24T07:00:57.990Z,1.00
2023-03-24T07:01:57.997Z,1.60
2023-03-24T07:02:58.091Z,1.60
2023-03-24T07:03:57.943Z,1.50
2023-03-24T07:04:57.912Z,1.20
2023-03-24T07:05:57.923Z,1.70
2023-03-24T07:07:17.538Z,1.90
2023-03-24T07:08:57.979Z,1.50
2023-03-24T07:09:57.867Z,1.60
2023-03-24T07:10:57.844Z,1.80
2023-03-24T07:11:57.831Z,2.30
2023-03-24T07:12:57.840Z,1.80
2023-03-24T07:13:57.979Z,1.80
2023-03-24T07:14:57.819Z,1.90
2023-03-24T07:15:57.838Z,2.10
2023-03-24T07:16:57.781Z,1.90
2023-03-24T07:17:57.844Z,1.80
2023-03-24T07:18:57.760Z,1.90
2023-03-24T07:19:57.749Z,2.00
2023-03-24T07:20:57.725Z,2.00
2023-03-24T07:21:57.718Z,1.80
2023-03-24T07:22:57.762Z,2.00
2023-03-24T07:23:57.729Z,2.10
2023-03-24T07:24:57.707Z,2.20
2023-03-24T07:25:57.795Z,2.20
2023-03-24T07:26:57.733Z,1.90
2023-03-24T07:27:57.677Z,2.60
2023-03-24T07:28:57.640Z,2.60
2023-03-24T07:29:57.654Z,2.50
2023-03-24T07:30:57.918Z,2.40
2023-03-24T07:31:57.614Z,2.00
2023-03-24T07:32:57.626Z,2.10
2023-03-24T07:33:59.747Z,2.20
2023-03-24T07:34:57.582Z,2.50
2023-03-24T07:35:57.678Z,2.40
2023-03-24T07:36:58.701Z,2.20
2023-03-24T07:37:57.549Z,2.50
2023-03-24T07:38:57.648Z,2.50
2023-03-24T07:39:57.525Z,2.30
2023-03-24T07:40:57.509Z,2.50
2023-03-24T07:41:57.517Z,2.60
2023-03-24T07:42:57.504Z,2.50
2023-03-24T07:43:57.490Z,2.40
2023-03-24T07:44:57.465Z,2.60
2023-03-24T07:45:57.504Z,2.60
2023-03-24T07:46:57.585Z,2.30
2023-03-24T07:47:57.518Z,2.40
2023-03-24T07:49:03.238Z,2.40
2023-03-24T07:49:57.413Z,2.90
2023-03-24T07:50:57.414Z,2.80
2023-03-24T07:51:57.598Z,3.10
2023-03-24T07:52:59.826Z,3.10
2023-03-24T07:53:57.545Z,3.30
2023-03-24T07:54:57.369Z,3.00
2023-03-24T07:55:57.393Z,3.10
2023-03-24T07:56:57.428Z,3.20
2023-03-24T07:57:57.360Z,3.20
2023-03-24T07:58:57.386Z,2.90
2023-03-24T07:59:57.325Z,2.90
2023-03-24T08:00:57.321Z,3.00
2023-03-24T08:01:59.795Z,2.30
2023-03-24T08:02:57.531Z,2.80
2023-03-24T08:03:57.396Z,2.30
2023-03-24T08:04:57.253Z,2.60
2023-03-24T08:05:57.609Z,2.50
2023-03-24T08:06:57.247Z,2.70
2023-03-24T08:07:57.290Z,2.40
2023-03-24T08:08:57.239Z,2.50
2023-03-24T08:09:57.214Z,2.50
2023-03-24T08:10:57.292Z,2.60
2023-03-24T08:11:58.983Z,2.40
2023-03-24T08:12:57.171Z,2.40
2023-03-24T08:13:57.146Z,2.30
2023-03-24T08:14:57.146Z,2.10
2023-03-24T08:15:57.170Z,2.30
2023-03-24T08:16:57.244Z,2.10
2023-03-24T08:17:57.199Z,2.00
2023-03-24T08:18:57.123Z,1.70
2023-03-24T08:20:00.407Z,2.00
2023-03-24T08:20:57.123Z,2.60
2023-03-24T08:21:57.156Z,2.40
2023-03-24T08:22:57.056Z,1.90
2023-03-24T08:23:57.256Z,2.50
2023-03-24T08:24:57.048Z,2.00
2023-03-24T08:25:57.020Z,1.80
2023-03-24T08:26:57.031Z,2.40
2023-03-24T08:27:57.017Z,2.10
2023-03-24T08:28:57.018Z,1.90
2023-03-24T08:29:56.992Z,2.00
2023-03-24T08:30:57.038Z,1.80
2023-03-24T08:31:57.158Z,2.20
2023-03-24T08:32:57.525Z,2.10
2023-03-24T08:33:57.952Z,2.10
2023-03-24T08:34:56.965Z,2.50
2023-03-24T08:35:57.011Z,2.30
2023-03-24T08:36:56.929Z,2.30
2023-03-24T08:37:56.903Z,3.00
2023-03-24T08:38:57.263Z,3.00
2023-03-24T08:39:56.858Z,2.50
2023-03-24T08:40:56.863Z,2.10
2023-03-24T08:41:56.860Z,2.10
2023-03-24T08:42:56.857Z,2.20
2023-03-24T08:43:56.821Z,2.60
2023-03-24T08:44:56.852Z,2.20
2023-03-24T08:45:56.901Z,2.30
2023-03-24T08:48:14.068Z,2.10
2023-03-24T08:49:14.002Z,2.30
2023-03-24T08:50:14.019Z,2.20
2023-03-24T08:51:14.036Z,2.50
2023-03-24T08:52:14.037Z,1.90
2023-03-24T08:53:13.968Z,2.40
2023-03-24T08:55:41.311Z,2.10
2023-03-24T08:56:40.733Z,2.20
2023-03-24T08:57:40.626Z,2.00
2023-03-24T08:58:40.680Z,2.10
2023-03-24T08:59:40.596Z,2.40
2023-03-24T09:00:40.911Z,2.50
2023-03-24T09:01:40.560Z,2.00
2023-03-24T09:02:40.638Z,2.00
2023-03-24T09:03:40.576Z,2.30
2023-03-24T09:04:40.560Z,2.00
2023-03-24T09:05:44.757Z,1.70
2023-03-24T09:06:41.488Z,2.20
2023-03-24T09:07:40.530Z,2.40
2023-03-24T09:08:40.495Z,1.80
2023-03-24T09:09:40.471Z,1.70
2023-03-24T09:10:40.494Z,2.00
2023-03-24T09:11:40.552Z,1.90
2023-03-24T09:12:40.469Z,1.80
2023-03-24T09:13:40.648Z,2.40
2023-03-24T09:14:40.446Z,2.10
2023-03-24T09:15:40.637Z,2.20
2023-03-24T09:16:40.387Z,2.10
2023-03-24T09:17:40.467Z,2.50
2023-03-24T09:18:40.383Z,2.30
2023-03-24T09:19:40.446Z,2.50
2023-03-24T09:20:40.328Z,2.10
2023-03-24T09:21:40.406Z,2.00
2023-03-24T09:22:42.733Z,1.80
2023-03-24T09:23:40.311Z,2.60
2023-03-24T09:24:40.323Z,2.30
2023-03-24T09:25:40.277Z,2.20
2023-03-24T09:26:40.284Z,2.40
2023-03-24T09:27:40.331Z,2.10
2023-03-24T09:28:40.302Z,2.50
2023-03-24T09:29:40.272Z,1.90
2023-03-24T09:30:40.258Z,1.90
2023-03-24T09:31:40.307Z,2.60
2023-03-24T09:32:40.247Z,2.40
2023-03-24T09:33:40.294Z,3.10
2023-03-24T09:34:40.294Z,2.30
2023-03-24T09:35:40.320Z,2.20
2023-03-24T09:36:40.156Z,2.60
2023-03-24T09:37:40.186Z,2.80
2023-03-24T09:38:40.158Z,2.40
2023-03-24T09:39:40.169Z,2.40
2023-03-24T09:40:40.124Z,2.70
2023-03-24T09:41:40.110Z,2.60
2023-03-24T09:42:40.480Z,2.60
2023-03-24T09:43:40.249Z,2.60
2023-03-24T09:44:41.337Z,2.40
2023-03-24T09:45:40.128Z,2.60
2023-03-24T09:46:40.115Z,2.30
2023-03-24T09:47:40.140Z,3.00
2023-03-24T09:48:40.041Z,2.30
2023-03-24T09:49:40.035Z,2.10
2023-03-24T09:50:40.060Z,2.50
2023-03-24T09:51:39.993Z,2.20
2023-03-24T09:52:39.985Z,2.50
2023-03-24T09:53:39.991Z,2.40
2023-03-24T09:54:40.046Z,2.50
2023-03-24T09:55:39.968Z,2.70
2023-03-24T09:56:40.018Z,2.40
2023-03-24T09:57:39.980Z,2.40
2023-03-24T09:58:39.922Z,2.30
2023-03-24T09:59:39.922Z,2.10
2023-03-24T10:00:39.935Z,2.20
2023-03-24T10:01:39.917Z,2.60
2023-03-24T10:02:39.969Z,2.20
2023-03-24T10:03:39.993Z,2.70
2023-03-24T10:04:39.852Z,2.50
2023-03-24T10:05:39.848Z,2.90
2023-03-24T10:06:39.979Z,2.30
2023-03-24T10:07:39.835Z,2.10
2023-03-24T10:08:39.820Z,2.30
2023-03-24T10:09:39.833Z,2.50
2023-03-24T10:10:39.801Z,2.40
2023-03-24T10:11:39.846Z,2.20
2023-03-24T10:12:39.753Z,1.90
2023-03-24T10:13:39.774Z,2.30
2023-03-24T10:14:39.728Z,2.40
2023-03-24T10:15:39.736Z,2.20
2023-03-24T10:16:39.799Z,2.50
2023-03-24T10:17:39.755Z,1.90
2023-03-24T10:18:39.726Z,2.30
2023-03-24T10:19:39.670Z,2.10
2023-03-24T10:20:39.733Z,2.10
2023-03-24T10:21:40.002Z,2.30
2023-03-24T10:22:39.685Z,2.30
2023-03-24T10:23:39.799Z,2.10
2023-03-24T10:24:39.626Z,2.10
2023-03-24T10:25:39.642Z,2.40
2023-03-24T10:26:39.615Z,2.60
2023-03-24T10:27:39.618Z,2.20
2023-03-24T10:28:39.575Z,2.20
2023-03-24T10:29:39.579Z,2.20
2023-03-24T10:30:39.572Z,2.10
2023-03-24T10:31:39.556Z,2.10
2023-03-24T10:32:39.582Z,2.10
2023-03-24T10:33:39.866Z,2.20
2023-03-24T10:34:39.534Z,2.00
2023-03-24T10:35:39.624Z,2.10
2023-03-24T10:36:39.543Z,2.10
2023-03-24T10:37:39.509Z,1.70
2023-03-24T10:38:39.637Z,2.00
2023-03-24T10:39:44.746Z,2.10
2023-03-24T10:40:39.473Z,1.90
2023-03-24T10:41:39.505Z,2.00
2023-03-24T10:42:39.430Z,1.90
2023-03-24T10:43:39.407Z,1.70
2023-03-24T10:44:39.399Z,2.10
2023-03-24T10:45:39.462Z,2.00
2023-03-24T10:46:39.420Z,1.70
2023-03-24T10:47:39.399Z,2.20
2023-03-24T10:48:39.403Z,1.90
2023-03-24T10:49:39.386Z,2.20
2023-03-24T10:50:39.341Z,2.30
2023-03-24T10:51:39.361Z,2.00
2023-03-24T10:52:39.381Z,1.70
2023-03-24T10:53:39.302Z,2.00
2023-03-24T10:54:39.305Z,1.60
2023-03-24T10:55:47.071Z,1.70
2023-03-24T10:56:39.334Z,2.10
2023-03-24T10:57:39.280Z,2.30
2023-03-24T10:58:39.260Z,1.90
2023-03-24T10:59:39.261Z,1.80
2023-03-24T11:00:40.465Z,2.20
2023-03-24T11:01:39.455Z,2.00
2023-03-24T11:02:39.308Z,2.10
2023-03-24T11:03:39.219Z,1.80
2023-03-24T11:04:39.188Z,1.80
2023-03-24T11:05:39.191Z,1.90
2023-03-24T11:06:39.167Z,1.80
2023-03-24T11:07:39.290Z,2.00
2023-03-24T11:08:39.204Z,1.50
2023-03-24T11:09:39.140Z,2.00
2023-03-24T11:10:39.243Z,2.00
2023-03-24T11:11:39.142Z,2.00
2023-03-24T11:12:39.127Z,1.70
2023-03-24T11:13:39.100Z,2.20
2023-03-24T11:14:39.099Z,1.60
2023-03-24T11:15:39.103Z,2.00
2023-03-24T11:16:39.150Z,1.60
2023-03-24T11:17:39.067Z,1.70
2023-03-24T11:18:39.123Z,1.60
2023-03-24T11:19:39.018Z,2.10
2023-03-24T11:20:39.036Z,1.70
2023-03-24T11:21:38.993Z,1.80
2023-03-24T11:22:38.983Z,1.90
2023-03-24T11:23:39.417Z,1.80
2023-03-24T11:24:38.975Z,1.90
2023-03-24T11:25:38.987Z,1.80
2023-03-24T11:26:39.023Z,1.60
2023-03-24T11:27:38.947Z,1.70
2023-03-24T11:28:38.966Z,1.80
2023-03-24T11:29:39.040Z,1.60
2023-03-24T11:30:38.945Z,1.90
2023-03-24T11:31:38.876Z,1.90
2023-03-24T11:32:38.886Z,1.90
2023-03-24T11:33:38.874Z,1.90
2023-03-24T11:34:38.935Z,1.40
2023-03-24T11:35:42.161Z,1.60
2023-03-24T11:36:38.890Z,1.70
2023-03-24T11:37:38.809Z,1.50
2023-03-24T11:38:38.797Z,2.20
2023-03-24T11:39:38.793Z,1.60
2023-03-24T11:40:39.651Z,2.00
2023-03-24T11:41:38.782Z,1.80
2023-03-24T11:42:38.904Z,2.10
2023-03-24T11:43:38.797Z,1.90
2023-03-24T11:44:38.769Z,1.90
2023-03-24T11:45:38.738Z,2.00
2023-03-24T11:46:38.781Z,1.90
2023-03-24T11:47:38.780Z,2.20
2023-03-24T11:48:41.225Z,1.80
2023-03-24T11:49:38.773Z,2.10
2023-03-24T11:50:38.688Z,1.80
2023-03-24T11:51:38.663Z,1.90
2023-03-24T11:52:38.672Z,1.90
2023-03-24T11:53:38.668Z,2.00
2023-03-24T11:54:38.631Z,2.30
2023-03-24T11:55:38.631Z,1.70
2023-03-24T11:56:38.642Z,2.40
2023-03-24T11:57:38.622Z,2.60
2023-03-24T11:58:38.607Z,2.70
2023-03-24T11:59:38.567Z,2.20
2023-03-24T12:00:38.564Z,1.70
2023-03-24T12:01:38.617Z,2.50
2023-03-24T12:02:38.697Z,2.20
2023-03-24T12:03:38.631Z,1.90
2023-03-24T12:04:38.522Z,2.20
2023-03-24T12:05:38.574Z,2.10
2023-03-24T12:06:38.531Z,2.20
2023-03-24T12:07:38.509Z,1.80
2023-03-24T12:08:38.519Z,2.00
2023-03-24T12:09:38.483Z,2.00
2023-03-24T12:10:38.454Z,2.10
2023-03-24T12:11:38.442Z,1.60
2023-03-24T12:12:38.445Z,2.20
2023-03-24T12:13:38.491Z,1.80
2023-03-24T12:14:38.419Z,1.80
2023-03-24T12:15:38.413Z,1.80
2023-03-24T12:16:40.195Z,2.10
2023-03-24T12:17:39.590Z,1.80
2023-03-24T12:18:38.410Z,1.90
2023-03-24T12:19:38.368Z,1.80
2023-03-24T12:20:38.409Z,1.90
2023-03-24T12:21:38.331Z,2.10
2023-03-24T12:22:39.166Z,1.90
2023-03-24T12:23:38.305Z,1.70
2023-03-24T12:24:38.303Z,2.00
2023-03-24T12:25:38.302Z,2.10
2023-03-24T12:26:38.287Z,1.90
2023-03-24T12:27:38.376Z,1.60
2023-03-24T12:28:38.258Z,1.70
2023-03-24T12:29:38.263Z,2.10
2023-03-24T12:30:38.280Z,1.60
2023-03-24T12:31:38.316Z,1.70
2023-03-24T12:32:38.250Z,1.70
2023-03-24T12:33:38.237Z,1.80
2023-03-24T12:34:38.179Z,1.90
2023-03-24T12:35:39.663Z,1.60
2023-03-24T12:36:38.204Z,1.80
2023-03-24T12:37:38.142Z,1.90
2023-03-24T12:38:38.182Z,2.10
2023-03-24T12:39:38.140Z,2.00
2023-03-24T12:40:38.108Z,1.80
2023-03-24T12:41:38.112Z,1.80
2023-03-24T12:42:38.170Z,1.70
2023-03-24T12:43:38.076Z,1.80
2023-03-24T12:44:38.284Z,1.80
2023-03-24T12:45:38.102Z,2.10
2023-03-24T12:46:47.738Z,2.00
2023-03-24T12:47:38.084Z,1.80
2023-03-24T12:48:38.026Z,1.70
2023-03-24T12:49:38.025Z,2.10
2023-03-24T12:50:38.012Z,2.00
2023-03-24T12:51:38.003Z,1.80
2023-03-24T12:52:38.005Z,1.80
2023-03-24T12:53:37.979Z,1.90
2023-03-24T12:54:38.002Z,2.40
2023-03-24T12:55:38.048Z,1.90
2023-03-24T12:56:45.070Z,1.90
2023-03-24T12:57:37.951Z,1.70
2023-03-24T12:58:37.947Z,2.10
2023-03-24T12:59:37.933Z,1.80
2023-03-24T13:00:37.888Z,1.80
2023-03-24T13:01:37.953Z,1.80
2023-03-24T13:02:38.052Z,1.90
2023-03-24T13:03:37.852Z,1.80
2023-03-24T13:04:37.870Z,1.80
2023-03-24T13:05:37.875Z,1.60
2023-03-24T13:06:37.861Z,1.70
2023-03-24T13:07:37.884Z,2.10
2023-03-24T13:08:37.814Z,1.80
2023-03-24T13:09:37.835Z,1.70
2023-03-24T13:10:37.776Z,2.00
2023-03-24T13:11:37.792Z,1.40
2023-03-24T13:12:37.770Z,1.90
2023-03-24T13:13:37.842Z,1.20
2023-03-24T13:14:37.741Z,1.80
2023-03-24T13:15:38.158Z,1.80
2023-03-24T13:16:37.787Z,1.40
2023-03-24T13:17:37.729Z,1.60
2023-03-24T13:18:37.706Z,1.70
2023-03-24T13:19:37.696Z,1.40
2023-03-24T13:20:37.673Z,1.70
2023-03-24T13:21:37.672Z,1.50